sensor_id;sensor_type;location;lat;lon;timestamp;temperature;humidity
37222;DHT22;23119;51.842;-2.230;2023-06-22T00:01:02;19.60;99.90
37222;DHT22;23119;51.842;-2.230;2023-06-22T00:03:30;19.60;99.90
37222;DHT22;23119;51.842;-2.230;2023-06-22T00:05:56;19.60;99.90
37222;DHT22;23119;51.842;-2.230;2023-06-22T00:08:22;19.50;99.90
37222;DHT22;23119;51.842;-2.230;2023-06-22T00:10:50;19.50;99.90
37222;DHT22;23119;51.842;-2.230;2023-06-22T00:13:19;19.50;99.90
37222;DHT22;23119;51.842;-2.230;2023-06-22T00:15:49;19.50;99.90
37222;DHT22;23119;51.842;-2.230;2023-06-22T00:18:15;19.50;99.90
37222;DHT22;23119;51.842;-2.230;2023-06-22T00:20:41;19.50;99.90
37222;DHT22;23119;51.842;-2.230;2023-06-22T00:23:07;19.50;99.90
37222;DHT22;23119;51.842;-2.230;2023-06-22T00:25:40;19.30;99.90
37222;DHT22;23119;51.842;-2.230;2023-06-22T00:28:06;19.50;99.90
37222;DHT22;23119;51.842;-2.230;2023-06-22T00:30:33;19.50;99.90
37222;DHT22;23119;51.842;-2.230;2023-06-22T00:33:00;19.50;99.90
37222;DHT22;23119;51.842;-2.230;2023-06-22T00:35:26;19.50;99.90
37222;DHT22;23119;51.842;-2.230;2023-06-22T00:38:00;19.40;99.90
37222;DHT22;23119;51.842;-2.230;2023-06-22T00:40:26;19.50;99.90
37222;DHT22;23119;51.842;-2.230;2023-06-22T00:42:52;19.50;99.90
37222;DHT22;23119;51.842;-2.230;2023-06-22T00:45:18;19.40;99.90
37222;DHT22;23119;51.842;-2.230;2023-06-22T00:47:44;19.40;99.90
37222;DHT22;23119;51.842;-2.230;2023-06-22T00:50:13;19.40;99.90
37222;DHT22;23119;51.842;-2.230;2023-06-22T00:52:43;19.40;99.90
37222;DHT22;23119;51.842;-2.230;2023-06-22T00:55:12;19.30;99.90
37222;DHT22;23119;51.842;-2.230;2023-06-22T00:57:37;19.30;99.90
37222;DHT22;23119;51.842;-2.230;2023-06-22T01:00:03;19.30;99.90
37222;DHT22;23119;51.842;-2.230;2023-06-22T01:02:36;19.30;99.90
37222;DHT22;23119;51.842;-2.230;2023-06-22T01:05:02;19.30;99.90
37222;DHT22;23119;51.842;-2.230;2023-06-22T01:07:39;19.30;99.90
37222;DHT22;23119;51.842;-2.230;2023-06-22T01:10:21;19.30;99.90
37222;DHT22;23119;51.842;-2.230;2023-06-22T01:13:01;19.20;99.90
37222;DHT22;23119;51.842;-2.230;2023-06-22T01:15:42;19.20;99.90
37222;DHT22;23119;51.842;-2.230;2023-06-22T01:18:14;19.20;99.90
37222;DHT22;23119;51.842;-2.230;2023-06-22T01:20:40;19.20;99.90
37222;DHT22;23119;51.842;-2.230;2023-06-22T01:26:11;19.10;99.90
37222;DHT22;23119;51.842;-2.230;2023-06-22T01:28:44;19.10;99.90
37222;DHT22;23119;51.842;-2.230;2023-06-22T01:31:12;19.10;99.90
37222;DHT22;23119;51.842;-2.230;2023-06-22T01:33:41;19.00;99.90
37222;DHT22;23119;51.842;-2.230;2023-06-22T01:36:08;19.00;99.90
37222;DHT22;23119;51.842;-2.230;2023-06-22T01:38:36;18.90;99.90
37222;DHT22;23119;51.842;-2.230;2023-06-22T01:41:02;18.90;99.90
37222;DHT22;23119;51.842;-2.230;2023-06-22T01:43:31;18.90;99.90
37222;DHT22;23119;51.842;-2.230;2023-06-22T01:46:01;18.90;99.90
37222;DHT22;23119;51.842;-2.230;2023-06-22T01:48:30;18.90;99.90
37222;DHT22;23119;51.842;-2.230;2023-06-22T01:50:56;18.90;99.90
37222;DHT22;23119;51.842;-2.230;2023-06-22T01:53:25;18.90;99.90
37222;DHT22;23119;51.842;-2.230;2023-06-22T01:55:51;18.80;99.90
37222;DHT22;23119;51.842;-2.230;2023-06-22T01:58:21;18.80;99.90
37222;DHT22;23119;51.842;-2.230;2023-06-22T02:00:49;18.80;99.90
37222;DHT22;23119;51.842;-2.230;2023-06-22T02:03:22;18.80;99.90
37222;DHT22;23119;51.842;-2.230;2023-06-22T02:05:56;18.80;99.90
37222;DHT22;23119;51.842;-2.230;2023-06-22T02:08:37;18.80;99.90
37222;DHT22;23119;51.842;-2.230;2023-06-22T02:11:03;18.80;99.90
37222;DHT22;23119;51.842;-2.230;2023-06-22T02:13:31;18.80;99.90
37222;DHT22;23119;51.842;-2.230;2023-06-22T02:15:58;18.70;99.90
37222;DHT22;23119;51.842;-2.230;2023-06-22T02:18:23;18.70;99.90
37222;DHT22;23119;51.842;-2.230;2023-06-22T02:20:50;18.70;99.90
37222;DHT22;23119;51.842;-2.230;2023-06-22T02:23:18;18.70;99.90
37222;DHT22;23119;51.842;-2.230;2023-06-22T02:25:47;18.70;99.90
37222;DHT22;23119;51.842;-2.230;2023-06-22T02:28:12;18.70;99.90
37222;DHT22;23119;51.842;-2.230;2023-06-22T02:30:38;18.70;99.90
37222;DHT22;23119;51.842;-2.230;2023-06-22T02:33:04;18.70;99.90
37222;DHT22;23119;51.842;-2.230;2023-06-22T02:35:30;18.60;99.90
37222;DHT22;23119;51.842;-2.230;2023-06-22T02:38:04;18.60;99.90
37222;DHT22;23119;51.842;-2.230;2023-06-22T02:40:30;18.60;99.90
37222;DHT22;23119;51.842;-2.230;2023-06-22T02:42:56;18.60;99.90
37222;DHT22;23119;51.842;-2.230;2023-06-22T02:45:23;18.60;99.90
37222;DHT22;23119;51.842;-2.230;2023-06-22T02:47:49;18.60;99.90
37222;DHT22;23119;51.842;-2.230;2023-06-22T02:50:15;18.60;99.90
37222;DHT22;23119;51.842;-2.230;2023-06-22T02:52:41;18.60;99.90
37222;DHT22;23119;51.842;-2.230;2023-06-22T02:55:09;18.60;99.90
37222;DHT22;23119;51.842;-2.230;2023-06-22T02:57:35;18.50;99.90
37222;DHT22;23119;51.842;-2.230;2023-06-22T03:00:07;18.50;99.90
37222;DHT22;23119;51.842;-2.230;2023-06-22T03:02:42;18.50;99.90
37222;DHT22;23119;51.842;-2.230;2023-06-22T03:05:08;18.40;99.90
37222;DHT22;23119;51.842;-2.230;2023-06-22T03:07:39;18.40;99.90
37222;DHT22;23119;51.842;-2.230;2023-06-22T03:10:09;18.40;99.90
37222;DHT22;23119;51.842;-2.230;2023-06-22T03:12:37;18.40;99.90
37222;DHT22;23119;51.842;-2.230;2023-06-22T03:15:07;18.30;99.90
37222;DHT22;23119;51.842;-2.230;2023-06-22T03:17:35;18.20;99.90
37222;DHT22;23119;51.842;-2.230;2023-06-22T03:20:02;18.10;99.90
37222;DHT22;23119;51.842;-2.230;2023-06-22T03:22:35;18.20;99.90
37222;DHT22;23119;51.842;-2.230;2023-06-22T03:25:01;18.20;99.90
37222;DHT22;23119;51.842;-2.230;2023-06-22T03:27:27;18.10;99.90
37222;DHT22;23119;51.842;-2.230;2023-06-22T03:29:56;18.20;99.90
37222;DHT22;23119;51.842;-2.230;2023-06-22T03:32:22;18.20;99.90
37222;DHT22;23119;51.842;-2.230;2023-06-22T03:34:47;18.20;99.90
37222;DHT22;23119;51.842;-2.230;2023-06-22T03:37:22;18.20;99.90
37222;DHT22;23119;51.842;-2.230;2023-06-22T03:39:50;18.20;99.90
37222;DHT22;23119;51.842;-2.230;2023-06-22T03:42:18;18.20;99.90
37222;DHT22;23119;51.842;-2.230;2023-06-22T03:44:47;18.20;99.90
37222;DHT22;23119;51.842;-2.230;2023-06-22T03:47:13;18.20;99.90
37222;DHT22;23119;51.842;-2.230;2023-06-22T03:49:39;18.20;99.90
37222;DHT22;23119;51.842;-2.230;2023-06-22T03:52:07;18.20;99.90
37222;DHT22;23119;51.842;-2.230;2023-06-22T03:54:33;18.20;99.90
37222;DHT22;23119;51.842;-2.230;2023-06-22T03:57:01;18.20;99.90
37222;DHT22;23119;51.842;-2.230;2023-06-22T03:59:30;18.20;99.90
37222;DHT22;23119;51.842;-2.230;2023-06-22T04:01:55;18.20;99.90
37222;DHT22;23119;51.842;-2.230;2023-06-22T04:04:29;18.20;99.90
37222;DHT22;23119;51.842;-2.230;2023-06-22T04:06:55;18.20;99.90
37222;DHT22;23119;51.842;-2.230;2023-06-22T04:09:21;18.20;99.90
37222;DHT22;23119;51.842;-2.230;2023-06-22T04:11:52;18.20;99.90
37222;DHT22;23119;51.842;-2.230;2023-06-22T04:14:18;18.30;99.90
37222;DHT22;23119;51.842;-2.230;2023-06-22T04:16:46;18.30;99.90
37222;DHT22;23119;51.842;-2.230;2023-06-22T04:19:12;18.30;99.90
37222;DHT22;23119;51.842;-2.230;2023-06-22T04:21:42;18.40;99.90
37222;DHT22;23119;51.842;-2.230;2023-06-22T04:24:12;18.50;99.90
37222;DHT22;23119;51.842;-2.230;2023-06-22T04:26:46;18.70;99.90
37222;DHT22;23119;51.842;-2.230;2023-06-22T04:29:13;18.80;99.90
37222;DHT22;23119;51.842;-2.230;2023-06-22T04:31:41;19.00;99.90
37222;DHT22;23119;51.842;-2.230;2023-06-22T04:34:07;19.40;99.90
37222;DHT22;23119;51.842;-2.230;2023-06-22T04:36:37;19.80;99.90
37222;DHT22;23119;51.842;-2.230;2023-06-22T04:39:11;20.30;99.90
37222;DHT22;23119;51.842;-2.230;2023-06-22T04:41:40;20.60;99.90
37222;DHT22;23119;51.842;-2.230;2023-06-22T04:44:12;21.00;99.90
37222;DHT22;23119;51.842;-2.230;2023-06-22T04:46:40;21.50;99.90
37222;DHT22;23119;51.842;-2.230;2023-06-22T04:49:10;21.90;99.90
37222;DHT22;23119;51.842;-2.230;2023-06-22T04:51:42;22.50;99.90
37222;DHT22;23119;51.842;-2.230;2023-06-22T04:54:11;23.00;99.90
37222;DHT22;23119;51.842;-2.230;2023-06-22T04:56:37;23.30;99.90
37222;DHT22;23119;51.842;-2.230;2023-06-22T04:59:03;23.60;99.90
37222;DHT22;23119;51.842;-2.230;2023-06-22T05:01:29;24.00;99.90
37222;DHT22;23119;51.842;-2.230;2023-06-22T05:03:57;24.30;99.90
37222;DHT22;23119;51.842;-2.230;2023-06-22T05:06:26;24.20;99.90
37222;DHT22;23119;51.842;-2.230;2023-06-22T05:08:56;24.10;99.90
37222;DHT22;23119;51.842;-2.230;2023-06-22T05:11:28;23.90;99.90
37222;DHT22;23119;51.842;-2.230;2023-06-22T05:13:54;23.50;99.90
37222;DHT22;23119;51.842;-2.230;2023-06-22T05:16:22;23.20;99.90
37222;DHT22;23119;51.842;-2.230;2023-06-22T05:18:54;22.90;99.90
37222;DHT22;23119;51.842;-2.230;2023-06-22T05:21:23;22.60;99.90
37222;DHT22;23119;51.842;-2.230;2023-06-22T05:23:52;22.40;99.90
37222;DHT22;23119;51.842;-2.230;2023-06-22T05:26:19;22.50;99.90
37222;DHT22;23119;51.842;-2.230;2023-06-22T05:28:46;23.50;99.90
37222;DHT22;23119;51.842;-2.230;2023-06-22T05:31:15;24.80;99.90
37222;DHT22;23119;51.842;-2.230;2023-06-22T05:33:45;26.20;99.90
37222;DHT22;23119;51.842;-2.230;2023-06-22T05:36:17;27.50;99.90
37222;DHT22;23119;51.842;-2.230;2023-06-22T05:38:43;28.60;98.70
37222;DHT22;23119;51.842;-2.230;2023-06-22T05:41:09;29.70;97.00
37222;DHT22;23119;51.842;-2.230;2023-06-22T05:43:35;30.70;95.60
37222;DHT22;23119;51.842;-2.230;2023-06-22T05:46:01;31.60;94.10
37222;DHT22;23119;51.842;-2.230;2023-06-22T05:48:34;32.50;92.90
37222;DHT22;23119;51.842;-2.230;2023-06-22T05:51:02;33.20;91.40
37222;DHT22;23119;51.842;-2.230;2023-06-22T05:53:33;34.10;90.70
37222;DHT22;23119;51.842;-2.230;2023-06-22T05:55:59;34.80;88.40
37222;DHT22;23119;51.842;-2.230;2023-06-22T05:58:27;35.40;88.40
37222;DHT22;23119;51.842;-2.230;2023-06-22T06:00:52;36.00;86.20
37222;DHT22;23119;51.842;-2.230;2023-06-22T06:03:18;36.60;84.90
37222;DHT22;23119;51.842;-2.230;2023-06-22T06:05:52;37.30;83.30
37222;DHT22;23119;51.842;-2.230;2023-06-22T06:08:20;37.80;80.80
37222;DHT22;23119;51.842;-2.230;2023-06-22T06:10:45;38.10;80.20
37222;DHT22;23119;51.842;-2.230;2023-06-22T06:13:11;37.60;79.80
37222;DHT22;23119;51.842;-2.230;2023-06-22T06:15:37;37.50;79.90
37222;DHT22;23119;51.842;-2.230;2023-06-22T06:18:04;37.40;79.10
37222;DHT22;23119;51.842;-2.230;2023-06-22T06:20:31;37.50;78.20
37222;DHT22;23119;51.842;-2.230;2023-06-22T06:22:57;37.70;78.10
37222;DHT22;23119;51.842;-2.230;2023-06-22T06:25:27;37.60;77.90
37222;DHT22;23119;51.842;-2.230;2023-06-22T06:27:53;38.10;77.30
37222;DHT22;23119;51.842;-2.230;2023-06-22T06:30:22;38.50;76.70
37222;DHT22;23119;51.842;-2.230;2023-06-22T06:32:49;38.80;76.20
37222;DHT22;23119;51.842;-2.230;2023-06-22T06:35:18;39.20;75.40
37222;DHT22;23119;51.842;-2.230;2023-06-22T06:37:45;39.70;74.00
37222;DHT22;23119;51.842;-2.230;2023-06-22T06:40:15;40.00;73.00
37222;DHT22;23119;51.842;-2.230;2023-06-22T06:42:48;40.40;72.00
37222;DHT22;23119;51.842;-2.230;2023-06-22T06:45:22;41.00;71.10
37222;DHT22;23119;51.842;-2.230;2023-06-22T06:47:51;41.60;69.50
37222;DHT22;23119;51.842;-2.230;2023-06-22T06:50:17;42.10;68.80
37222;DHT22;23119;51.842;-2.230;2023-06-22T06:52:46;42.20;66.90
37222;DHT22;23119;51.842;-2.230;2023-06-22T06:55:12;42.20;66.50
37222;DHT22;23119;51.842;-2.230;2023-06-22T06:57:46;42.30;65.80
37222;DHT22;23119;51.842;-2.230;2023-06-22T07:00:16;42.10;64.50
37222;DHT22;23119;51.842;-2.230;2023-06-22T07:02:44;42.20;65.20
37222;DHT22;23119;51.842;-2.230;2023-06-22T07:05:11;42.50;65.30
37222;DHT22;23119;51.842;-2.230;2023-06-22T07:07:37;42.80;64.80
37222;DHT22;23119;51.842;-2.230;2023-06-22T07:10:13;42.90;64.20
37222;DHT22;23119;51.842;-2.230;2023-06-22T07:12:41;43.40;64.40
37222;DHT22;23119;51.842;-2.230;2023-06-22T07:15:09;43.90;63.90
37222;DHT22;23119;51.842;-2.230;2023-06-22T07:17:38;44.20;63.30
37222;DHT22;23119;51.842;-2.230;2023-06-22T07:20:16;44.50;62.90
37222;DHT22;23119;51.842;-2.230;2023-06-22T07:22:47;44.70;62.70
37222;DHT22;23119;51.842;-2.230;2023-06-22T07:25:13;45.00;62.10
37222;DHT22;23119;51.842;-2.230;2023-06-22T07:27:57;45.20;61.80
37222;DHT22;23119;51.842;-2.230;2023-06-22T07:30:38;45.40;61.10
37222;DHT22;23119;51.842;-2.230;2023-06-22T07:33:06;45.40;61.20
37222;DHT22;23119;51.842;-2.230;2023-06-22T07:35:33;45.30;60.20
37222;DHT22;23119;51.842;-2.230;2023-06-22T07:38:03;45.20;60.50
37222;DHT22;23119;51.842;-2.230;2023-06-22T07:40:29;45.20;60.30
37222;DHT22;23119;51.842;-2.230;2023-06-22T07:42:54;45.20;60.30
37222;DHT22;23119;51.842;-2.230;2023-06-22T07:45:22;45.10;60.20
37222;DHT22;23119;51.842;-2.230;2023-06-22T07:47:48;45.20;60.20
37222;DHT22;23119;51.842;-2.230;2023-06-22T07:50:14;44.90;60.10
37222;DHT22;23119;51.842;-2.230;2023-06-22T07:52:42;44.40;60.00
37222;DHT22;23119;51.842;-2.230;2023-06-22T07:55:10;44.20;60.50
37222;DHT22;23119;51.842;-2.230;2023-06-22T07:57:39;44.20;60.70
37222;DHT22;23119;51.842;-2.230;2023-06-22T08:00:08;43.60;60.10
37222;DHT22;23119;51.842;-2.230;2023-06-22T08:02:45;43.30;60.50
37222;DHT22;23119;51.842;-2.230;2023-06-22T08:05:14;42.90;61.40
37222;DHT22;23119;51.842;-2.230;2023-06-22T08:07:43;42.60;62.00
37222;DHT22;23119;51.842;-2.230;2023-06-22T08:10:13;42.30;62.50
37222;DHT22;23119;51.842;-2.230;2023-06-22T08:12:41;42.10;62.90
37222;DHT22;23119;51.842;-2.230;2023-06-22T08:15:10;41.90;63.40
37222;DHT22;23119;51.842;-2.230;2023-06-22T08:17:39;41.50;63.70
37222;DHT22;23119;51.842;-2.230;2023-06-22T08:20:06;41.10;63.70
37222;DHT22;23119;51.842;-2.230;2023-06-22T08:22:37;40.60;64.20
37222;DHT22;23119;51.842;-2.230;2023-06-22T08:25:08;40.20;65.00
37222;DHT22;23119;51.842;-2.230;2023-06-22T08:27:34;39.80;65.80
37222;DHT22;23119;51.842;-2.230;2023-06-22T08:30:03;39.30;66.10
37222;DHT22;23119;51.842;-2.230;2023-06-22T08:32:31;38.90;66.50
37222;DHT22;23119;51.842;-2.230;2023-06-22T08:35:00;38.50;67.30
37222;DHT22;23119;51.842;-2.230;2023-06-22T08:37:28;38.30;67.80
37222;DHT22;23119;51.842;-2.230;2023-06-22T08:40:02;38.00;68.10
37222;DHT22;23119;51.842;-2.230;2023-06-22T08:42:31;37.80;68.60
37222;DHT22;23119;51.842;-2.230;2023-06-22T08:44:57;37.50;68.90
37222;DHT22;23119;51.842;-2.230;2023-06-22T08:47:25;37.20;69.10
37222;DHT22;23119;51.842;-2.230;2023-06-22T08:49:59;36.90;69.60
37222;DHT22;23119;51.842;-2.230;2023-06-22T08:52:24;36.80;70.20
37222;DHT22;23119;51.842;-2.230;2023-06-22T08:54:55;36.70;70.70
37222;DHT22;23119;51.842;-2.230;2023-06-22T08:57:21;36.50;70.60
37222;DHT22;23119;51.842;-2.230;2023-06-22T08:59:50;36.20;70.50
37222;DHT22;23119;51.842;-2.230;2023-06-22T09:02:20;35.90;71.20
37222;DHT22;23119;51.842;-2.230;2023-06-22T09:04:48;35.80;71.80
37222;DHT22;23119;51.842;-2.230;2023-06-22T09:07:17;35.60;71.70
37222;DHT22;23119;51.842;-2.230;2023-06-22T09:09:48;35.50;72.30
37222;DHT22;23119;51.842;-2.230;2023-06-22T09:12:16;35.40;72.50
37222;DHT22;23119;51.842;-2.230;2023-06-22T09:14:45;35.30;72.90
37222;DHT22;23119;51.842;-2.230;2023-06-22T09:17:10;35.10;72.80
37222;DHT22;23119;51.842;-2.230;2023-06-22T09:19:40;34.90;73.30
37222;DHT22;23119;51.842;-2.230;2023-06-22T09:22:11;34.80;73.90
37222;DHT22;23119;51.842;-2.230;2023-06-22T09:24:37;34.70;74.20
37222;DHT22;23119;51.842;-2.230;2023-06-22T09:27:05;34.70;74.10
37222;DHT22;23119;51.842;-2.230;2023-06-22T09:29:31;34.80;74.30
37222;DHT22;23119;51.842;-2.230;2023-06-22T09:31:59;34.70;74.50
37222;DHT22;23119;51.842;-2.230;2023-06-22T09:34:25;34.70;75.00
37222;DHT22;23119;51.842;-2.230;2023-06-22T09:36:51;34.80;75.50
37222;DHT22;23119;51.842;-2.230;2023-06-22T09:39:20;34.90;75.70
37222;DHT22;23119;51.842;-2.230;2023-06-22T09:41:49;35.00;75.60
37222;DHT22;23119;51.842;-2.230;2023-06-22T09:44:18;34.90;75.40
37222;DHT22;23119;51.842;-2.230;2023-06-22T09:46:46;34.60;75.50
37222;DHT22;23119;51.842;-2.230;2023-06-22T09:49:12;34.30;75.70
37222;DHT22;23119;51.842;-2.230;2023-06-22T09:51:38;33.90;75.90
37222;DHT22;23119;51.842;-2.230;2023-06-22T09:54:03;33.60;76.30
37222;DHT22;23119;51.842;-2.230;2023-06-22T09:56:31;33.30;76.90
37222;DHT22;23119;51.842;-2.230;2023-06-22T09:58:57;33.00;77.40
37222;DHT22;23119;51.842;-2.230;2023-06-22T10:01:23;32.60;77.90
37222;DHT22;23119;51.842;-2.230;2023-06-22T10:03:52;32.30;78.50
37222;DHT22;23119;51.842;-2.230;2023-06-22T10:06:20;32.00;78.90
37222;DHT22;23119;51.842;-2.230;2023-06-22T10:08:45;31.70;79.00
37222;DHT22;23119;51.842;-2.230;2023-06-22T10:11:14;31.40;79.70
37222;DHT22;23119;51.842;-2.230;2023-06-22T10:13:40;31.20;80.10
37222;DHT22;23119;51.842;-2.230;2023-06-22T10:16:12;31.00;80.50
37222;DHT22;23119;51.842;-2.230;2023-06-22T10:18:45;30.80;80.80
37222;DHT22;23119;51.842;-2.230;2023-06-22T10:21:10;30.70;81.10
37222;DHT22;23119;51.842;-2.230;2023-06-22T10:23:38;30.90;81.70
37222;DHT22;23119;51.842;-2.230;2023-06-22T10:26:04;31.30;81.80
37222;DHT22;23119;51.842;-2.230;2023-06-22T10:28:32;31.90;81.70
37222;DHT22;23119;51.842;-2.230;2023-06-22T10:31:03;32.30;80.80
37222;DHT22;23119;51.842;-2.230;2023-06-22T10:33:31;32.70;79.70
37222;DHT22;23119;51.842;-2.230;2023-06-22T10:35:57;32.70;79.10
37222;DHT22;23119;51.842;-2.230;2023-06-22T10:38:26;32.50;79.20
37222;DHT22;23119;51.842;-2.230;2023-06-22T10:40:54;32.50;80.00
37222;DHT22;23119;51.842;-2.230;2023-06-22T10:43:20;32.60;79.30
37222;DHT22;23119;51.842;-2.230;2023-06-22T10:45:46;32.30;78.70
37222;DHT22;23119;51.842;-2.230;2023-06-22T10:48:12;32.10;79.30
37222;DHT22;23119;51.842;-2.230;2023-06-22T10:50:37;32.40;80.00
37222;DHT22;23119;51.842;-2.230;2023-06-22T10:53:03;32.80;80.00
37222;DHT22;23119;51.842;-2.230;2023-06-22T10:55:29;33.10;79.10
37222;DHT22;23119;51.842;-2.230;2023-06-22T10:57:54;33.30;78.90
37222;DHT22;23119;51.842;-2.230;2023-06-22T11:00:20;33.70;78.40
37222;DHT22;23119;51.842;-2.230;2023-06-22T11:02:47;33.90;77.80
37222;DHT22;23119;51.842;-2.230;2023-06-22T11:05:12;34.20;78.00
37222;DHT22;23119;51.842;-2.230;2023-06-22T11:07:42;34.60;78.20
37222;DHT22;23119;51.842;-2.230;2023-06-22T11:10:09;35.00;78.10
37222;DHT22;23119;51.842;-2.230;2023-06-22T11:12:37;35.10;77.30
37222;DHT22;23119;51.842;-2.230;2023-06-22T11:15:03;34.90;76.60
37222;DHT22;23119;51.842;-2.230;2023-06-22T11:17:32;34.70;76.40
37222;DHT22;23119;51.842;-2.230;2023-06-22T11:19:57;34.20;76.20
37222;DHT22;23119;51.842;-2.230;2023-06-22T11:22:25;33.80;77.00
37222;DHT22;23119;51.842;-2.230;2023-06-22T11:24:51;33.40;76.80
37222;DHT22;23119;51.842;-2.230;2023-06-22T11:27:17;32.80;76.90
37222;DHT22;23119;51.842;-2.230;2023-06-22T11:29:43;32.50;77.60
37222;DHT22;23119;51.842;-2.230;2023-06-22T11:32:08;32.20;78.40
37222;DHT22;23119;51.842;-2.230;2023-06-22T11:34:34;32.20;79.10
37222;DHT22;23119;51.842;-2.230;2023-06-22T11:37:00;32.40;78.70
37222;DHT22;23119;51.842;-2.230;2023-06-22T11:39:28;32.80;79.00
37222;DHT22;23119;51.842;-2.230;2023-06-22T11:41:56;33.20;78.80
37222;DHT22;23119;51.842;-2.230;2023-06-22T11:44:22;33.60;78.50
37222;DHT22;23119;51.842;-2.230;2023-06-22T11:46:48;34.00;78.00
37222;DHT22;23119;51.842;-2.230;2023-06-22T11:49:16;34.40;77.30
37222;DHT22;23119;51.842;-2.230;2023-06-22T11:51:42;34.60;76.70
37222;DHT22;23119;51.842;-2.230;2023-06-22T11:54:07;34.50;76.40
37222;DHT22;23119;51.842;-2.230;2023-06-22T11:56:33;34.20;76.30
37222;DHT22;23119;51.842;-2.230;2023-06-22T11:58:59;33.90;76.60
37222;DHT22;23119;51.842;-2.230;2023-06-22T12:01:27;33.70;76.80
37222;DHT22;23119;51.842;-2.230;2023-06-22T12:03:53;33.50;77.30
37222;DHT22;23119;51.842;-2.230;2023-06-22T12:06:18;33.60;77.60
37222;DHT22;23119;51.842;-2.230;2023-06-22T12:08:44;33.60;77.40
37222;DHT22;23119;51.842;-2.230;2023-06-22T12:11:10;33.40;77.00
37222;DHT22;23119;51.842;-2.230;2023-06-22T12:13:36;33.10;76.70
37222;DHT22;23119;51.842;-2.230;2023-06-22T12:16:01;33.00;77.30
37222;DHT22;23119;51.842;-2.230;2023-06-22T12:18:29;33.00;77.40
37222;DHT22;23119;51.842;-2.230;2023-06-22T12:20:55;33.00;77.20
37222;DHT22;23119;51.842;-2.230;2023-06-22T12:23:20;32.90;77.60
37222;DHT22;23119;51.842;-2.230;2023-06-22T12:25:49;32.80;78.00
37222;DHT22;23119;51.842;-2.230;2023-06-22T12:28:14;32.60;78.10
37222;DHT22;23119;51.842;-2.230;2023-06-22T12:30:40;32.50;78.20
37222;DHT22;23119;51.842;-2.230;2023-06-22T12:33:06;32.30;78.30
37222;DHT22;23119;51.842;-2.230;2023-06-22T12:35:31;32.20;78.60
37222;DHT22;23119;51.842;-2.230;2023-06-22T12:37:57;32.30;79.00
37222;DHT22;23119;51.842;-2.230;2023-06-22T12:40:23;32.60;79.10
37222;DHT22;23119;51.842;-2.230;2023-06-22T12:42:49;32.90;79.00
37222;DHT22;23119;51.842;-2.230;2023-06-22T12:45:15;33.20;78.50
37222;DHT22;23119;51.842;-2.230;2023-06-22T12:47:41;33.30;78.00
37222;DHT22;23119;51.842;-2.230;2023-06-22T12:50:07;33.40;76.70
37222;DHT22;23119;51.842;-2.230;2023-06-22T12:52:33;33.40;76.80
37222;DHT22;23119;51.842;-2.230;2023-06-22T12:55:01;33.60;77.20
37222;DHT22;23119;51.842;-2.230;2023-06-22T12:57:26;33.70;76.80
37222;DHT22;23119;51.842;-2.230;2023-06-22T12:59:52;33.90;77.00
37222;DHT22;23119;51.842;-2.230;2023-06-22T13:02:18;34.00;77.00
37222;DHT22;23119;51.842;-2.230;2023-06-22T13:04:46;34.00;76.70
37222;DHT22;23119;51.842;-2.230;2023-06-22T13:07:11;34.10;76.80
37222;DHT22;23119;51.842;-2.230;2023-06-22T13:09:37;34.20;76.00
37222;DHT22;23119;51.842;-2.230;2023-06-22T13:12:03;34.20;75.70
37222;DHT22;23119;51.842;-2.230;2023-06-22T13:14:32;34.30;75.40
37222;DHT22;23119;51.842;-2.230;2023-06-22T13:16:58;34.50;75.30
37222;DHT22;23119;51.842;-2.230;2023-06-22T13:19:23;34.60;75.20
37222;DHT22;23119;51.842;-2.230;2023-06-22T13:21:50;34.60;74.50
37222;DHT22;23119;51.842;-2.230;2023-06-22T13:24:17;34.70;74.80
37222;DHT22;23119;51.842;-2.230;2023-06-22T13:26:43;34.70;75.20
37222;DHT22;23119;51.842;-2.230;2023-06-22T13:29:12;34.60;74.70
37222;DHT22;23119;51.842;-2.230;2023-06-22T13:31:40;34.20;74.50
37222;DHT22;23119;51.842;-2.230;2023-06-22T13:34:08;33.90;74.60
37222;DHT22;23119;51.842;-2.230;2023-06-22T13:36:33;33.70;75.00
37222;DHT22;23119;51.842;-2.230;2023-06-22T13:38:59;33.50;74.70
37222;DHT22;23119;51.842;-2.230;2023-06-22T13:41:25;33.50;74.80
37222;DHT22;23119;51.842;-2.230;2023-06-22T13:43:53;33.60;74.50
37222;DHT22;23119;51.842;-2.230;2023-06-22T13:46:26;33.60;74.20
37222;DHT22;23119;51.842;-2.230;2023-06-22T13:48:51;33.50;74.20
37222;DHT22;23119;51.842;-2.230;2023-06-22T13:51:17;33.30;74.00
37222;DHT22;23119;51.842;-2.230;2023-06-22T13:53:43;33.30;73.90
37222;DHT22;23119;51.842;-2.230;2023-06-22T13:56:09;33.00;73.40
37222;DHT22;23119;51.842;-2.230;2023-06-22T13:58:37;32.80;73.90
37222;DHT22;23119;51.842;-2.230;2023-06-22T14:01:05;32.60;73.80
37222;DHT22;23119;51.842;-2.230;2023-06-22T14:03:31;32.30;73.80
37222;DHT22;23119;51.842;-2.230;2023-06-22T14:05:56;32.10;74.30
37222;DHT22;23119;51.842;-2.230;2023-06-22T14:08:23;32.10;75.30
37222;DHT22;23119;51.842;-2.230;2023-06-22T14:10:50;32.20;76.10
37222;DHT22;23119;51.842;-2.230;2023-06-22T14:13:16;32.30;76.40
37222;DHT22;23119;51.842;-2.230;2023-06-22T14:15:44;32.50;76.50
37222;DHT22;23119;51.842;-2.230;2023-06-22T14:18:12;32.80;76.60
37222;DHT22;23119;51.842;-2.230;2023-06-22T14:20:40;33.00;76.10
37222;DHT22;23119;51.842;-2.230;2023-06-22T14:23:06;33.10;75.10
37222;DHT22;23119;51.842;-2.230;2023-06-22T14:25:32;33.00;74.40
37222;DHT22;23119;51.842;-2.230;2023-06-22T14:28:00;32.90;74.60
37222;DHT22;23119;51.842;-2.230;2023-06-22T14:30:25;32.90;75.10
37222;DHT22;23119;51.842;-2.230;2023-06-22T14:32:51;32.80;75.30
37222;DHT22;23119;51.842;-2.230;2023-06-22T14:35:17;32.60;75.30
37222;DHT22;23119;51.842;-2.230;2023-06-22T14:37:43;32.50;75.50
37222;DHT22;23119;51.842;-2.230;2023-06-22T14:40:08;32.40;75.50
37222;DHT22;23119;51.842;-2.230;2023-06-22T14:42:34;32.20;75.90
37222;DHT22;23119;51.842;-2.230;2023-06-22T14:45:08;32.10;76.30
37222;DHT22;23119;51.842;-2.230;2023-06-22T14:47:36;31.90;76.30
37222;DHT22;23119;51.842;-2.230;2023-06-22T14:50:02;31.80;76.60
37222;DHT22;23119;51.842;-2.230;2023-06-22T14:52:29;31.70;76.60
37222;DHT22;23119;51.842;-2.230;2023-06-22T14:54:55;31.60;76.60
37222;DHT22;23119;51.842;-2.230;2023-06-22T14:57:23;31.50;76.80
37222;DHT22;23119;51.842;-2.230;2023-06-22T14:59:49;31.50;76.80
37222;DHT22;23119;51.842;-2.230;2023-06-22T15:02:16;31.60;77.10
37222;DHT22;23119;51.842;-2.230;2023-06-22T15:04:41;31.50;77.50
37222;DHT22;23119;51.842;-2.230;2023-06-22T15:07:07;31.40;77.70
37222;DHT22;23119;51.842;-2.230;2023-06-22T15:09:36;31.40;78.40
37222;DHT22;23119;51.842;-2.230;2023-06-22T15:12:07;31.40;79.30
37222;DHT22;23119;51.842;-2.230;2023-06-22T15:14:40;31.30;79.40
37222;DHT22;23119;51.842;-2.230;2023-06-22T15:17:12;31.20;79.30
37222;DHT22;23119;51.842;-2.230;2023-06-22T15:19:40;31.30;79.70
37222;DHT22;23119;51.842;-2.230;2023-06-22T15:22:07;31.30;79.80